sensor_id;sensor_type;location;lat;lon;timestamp;temperature;humidity
3037;DHT22;1528;52.550;13.408;2023-09-19T00:02:51;20.30;36.90
3037;DHT22;1528;52.550;13.408;2023-09-19T00:05:38;20.30;36.80
3037;DHT22;1528;52.550;13.408;2023-09-19T00:08:23;20.30;36.80
3037;DHT22;1528;52.550;13.408;2023-09-19T00:11:09;20.40;36.80
3037;DHT22;1528;52.550;13.408;2023-09-19T00:13:55;20.30;37.10
3037;DHT22;1528;52.550;13.408;2023-09-19T00:16:41;20.30;36.90
3037;DHT22;1528;52.550;13.408;2023-09-19T00:19:29;20.30;37.50
3037;DHT22;1528;52.550;13.408;2023-09-19T00:22:16;20.30;36.80
3037;DHT22;1528;52.550;13.408;2023-09-19T00:25:03;20.20;36.90
3037;DHT22;1528;52.550;13.408;2023-09-19T00:27:50;20.20;36.90
3037;DHT22;1528;52.550;13.408;2023-09-19T00:30:36;20.20;36.90
3037;DHT22;1528;52.550;13.408;2023-09-19T00:33:22;20.10;36.90
3037;DHT22;1528;52.550;13.408;2023-09-19T00:36:09;20.20;36.80
3037;DHT22;1528;52.550;13.408;2023-09-19T00:38:55;20.10;37.50
3037;DHT22;1528;52.550;13.408;2023-09-19T00:41:40;20.10;36.90
3037;DHT22;1528;52.550;13.408;2023-09-19T00:44:29;20.10;36.80
3037;DHT22;1528;52.550;13.408;2023-09-19T00:47:14;20.10;36.80
3037;DHT22;1528;52.550;13.408;2023-09-19T00:50:03;20.00;36.90
3037;DHT22;1528;52.550;13.408;2023-09-19T00:52:55;20.00;36.90
3037;DHT22;1528;52.550;13.408;2023-09-19T00:55:41;20.00;37.00
3037;DHT22;1528;52.550;13.408;2023-09-19T00:58:28;20.00;37.10
3037;DHT22;1528;52.550;13.408;2023-09-19T01:01:18;20.00;37.00
3037;DHT22;1528;52.550;13.408;2023-09-19T01:04:04;20.00;37.10
3037;DHT22;1528;52.550;13.408;2023-09-19T01:06:50;20.00;37.00
3037;DHT22;1528;52.550;13.408;2023-09-19T01:09:38;19.90;37.00
3037;DHT22;1528;52.550;13.408;2023-09-19T01:12:33;20.00;37.00
3037;DHT22;1528;52.550;13.408;2023-09-19T01:15:28;19.90;36.90
3037;DHT22;1528;52.550;13.408;2023-09-19T01:18:26;19.90;37.00
3037;DHT22;1528;52.550;13.408;2023-09-19T01:21:19;19.90;37.60
3037;DHT22;1528;52.550;13.408;2023-09-19T01:24:30;19.90;37.10
3037;DHT22;1528;52.550;13.408;2023-09-19T01:27:34;19.90;37.10
3037;DHT22;1528;52.550;13.408;2023-09-19T01:30:32;19.90;37.00
3037;DHT22;1528;52.550;13.408;2023-09-19T01:33:20;19.80;37.30
3037;DHT22;1528;52.550;13.408;2023-09-19T01:36:07;19.80;37.30
3037;DHT22;1528;52.550;13.408;2023-09-19T01:38:54;19.90;37.20
3037;DHT22;1528;52.550;13.408;2023-09-19T01:41:56;19.90;37.10
3037;DHT22;1528;52.550;13.408;2023-09-19T01:44:51;19.90;37.00
3037;DHT22;1528;52.550;13.408;2023-09-19T01:47:48;19.90;37.10
3037;DHT22;1528;52.550;13.408;2023-09-19T01:50:40;20.00;36.90
3037;DHT22;1528;52.550;13.408;2023-09-19T01:53:30;20.00;36.70
3037;DHT22;1528;52.550;13.408;2023-09-19T01:56:24;20.00;36.60
3037;DHT22;1528;52.550;13.408;2023-09-19T01:59:13;20.00;36.60
3037;DHT22;1528;52.550;13.408;2023-09-19T02:02:00;19.90;36.50
3037;DHT22;1528;52.550;13.408;2023-09-19T02:04:47;19.90;36.70
3037;DHT22;1528;52.550;13.408;2023-09-19T02:07:34;19.90;36.80
3037;DHT22;1528;52.550;13.408;2023-09-19T02:10:22;19.90;36.70
3037;DHT22;1528;52.550;13.408;2023-09-19T02:13:07;19.80;36.70
3037;DHT22;1528;52.550;13.408;2023-09-19T02:15:53;19.80;36.70
3037;DHT22;1528;52.550;13.408;2023-09-19T02:18:39;19.80;37.00
3037;DHT22;1528;52.550;13.408;2023-09-19T02:21:26;19.80;37.00
3037;DHT22;1528;52.550;13.408;2023-09-19T02:24:13;19.80;36.90
3037;DHT22;1528;52.550;13.408;2023-09-19T02:26:59;19.70;37.00
3037;DHT22;1528;52.550;13.408;2023-09-19T02:29:48;19.70;37.30
3037;DHT22;1528;52.550;13.408;2023-09-19T02:32:33;19.70;37.30
3037;DHT22;1528;52.550;13.408;2023-09-19T02:35:23;19.70;37.30
3037;DHT22;1528;52.550;13.408;2023-09-19T02:38:11;19.70;37.30
3037;DHT22;1528;52.550;13.408;2023-09-19T02:40:57;19.70;37.40
3037;DHT22;1528;52.550;13.408;2023-09-19T02:43:43;19.60;37.30
3037;DHT22;1528;52.550;13.408;2023-09-19T02:46:29;19.60;37.50
3037;DHT22;1528;52.550;13.408;2023-09-19T02:49:15;19.60;37.50
3037;DHT22;1528;52.550;13.408;2023-09-19T02:52:02;19.50;37.60
3037;DHT22;1528;52.550;13.408;2023-09-19T02:54:50;19.60;37.60
3037;DHT22;1528;52.550;13.408;2023-09-19T02:57:35;19.50;37.60
3037;DHT22;1528;52.550;13.408;2023-09-19T03:00:24;19.50;37.70
3037;DHT22;1528;52.550;13.408;2023-09-19T03:03:10;19.50;37.80
3037;DHT22;1528;52.550;13.408;2023-09-19T03:05:56;19.50;37.80
3037;DHT22;1528;52.550;13.408;2023-09-19T03:08:43;19.50;37.80
3037;DHT22;1528;52.550;13.408;2023-09-19T03:11:30;19.40;37.80
3037;DHT22;1528;52.550;13.408;2023-09-19T03:14:16;19.50;37.80
3037;DHT22;1528;52.550;13.408;2023-09-19T03:17:04;19.40;37.60
3037;DHT22;1528;52.550;13.408;2023-09-19T03:19:50;19.40;37.40
3037;DHT22;1528;52.550;13.408;2023-09-19T03:22:35;19.70;37.10
3037;DHT22;1528;52.550;13.408;2023-09-19T03:25:21;19.40;36.30
3037;DHT22;1528;52.550;13.408;2023-09-19T03:28:10;19.40;35.90
3037;DHT22;1528;52.550;13.408;2023-09-19T03:31:00;19.40;35.50
3037;DHT22;1528;52.550;13.408;2023-09-19T03:33:45;19.40;35.00
3037;DHT22;1528;52.550;13.408;2023-09-19T03:36:31;19.30;34.60
3037;DHT22;1528;52.550;13.408;2023-09-19T03:39:19;19.40;34.50
3037;DHT22;1528;52.550;13.408;2023-09-19T03:42:05;19.30;34.50
3037;DHT22;1528;52.550;13.408;2023-09-19T03:44:52;19.30;34.40
3037;DHT22;1528;52.550;13.408;2023-09-19T03:47:39;19.30;34.50
3037;DHT22;1528;52.550;13.408;2023-09-19T03:50:25;19.30;34.20
3037;DHT22;1528;52.550;13.408;2023-09-19T03:53:10;19.30;33.90
3037;DHT22;1528;52.550;13.408;2023-09-19T03:55:56;19.30;33.40
3037;DHT22;1528;52.550;13.408;2023-09-19T03:58:41;19.30;33.10
3037;DHT22;1528;52.550;13.408;2023-09-19T04:01:28;19.40;32.70
3037;DHT22;1528;52.550;13.408;2023-09-19T04:04:16;19.40;32.70
3037;DHT22;1528;52.550;13.408;2023-09-19T04:07:03;19.30;32.50
3037;DHT22;1528;52.550;13.408;2023-09-19T04:09:49;19.30;32.40
3037;DHT22;1528;52.550;13.408;2023-09-19T04:12:34;19.20;32.30
3037;DHT22;1528;52.550;13.408;2023-09-19T04:15:20;19.20;32.30
3037;DHT22;1528;52.550;13.408;2023-09-19T04:18:08;19.20;32.10
3037;DHT22;1528;52.550;13.408;2023-09-19T04:20:54;19.20;32.20
3037;DHT22;1528;52.550;13.408;2023-09-19T04:23:40;19.20;32.10
3037;DHT22;1528;52.550;13.408;2023-09-19T04:26:25;19.20;32.00
3037;DHT22;1528;52.550;13.408;2023-09-19T04:29:11;19.10;32.00
3037;DHT22;1528;52.550;13.408;2023-09-19T04:31:58;19.10;31.90
3037;DHT22;1528;52.550;13.408;2023-09-19T04:34:45;19.10;31.60
3037;DHT22;1528;52.550;13.408;2023-09-19T04:37:32;19.00;31.40
3037;DHT22;1528;52.550;13.408;2023-09-19T04:40:18;19.10;31.30
3037;DHT22;1528;52.550;13.408;2023-09-19T04:43:04;19.00;31.20
3037;DHT22;1528;52.550;13.408;2023-09-19T04:45:50;19.00;31.50
3037;DHT22;1528;52.550;13.408;2023-09-19T04:48:38;19.00;31.40
3037;DHT22;1528;52.550;13.408;2023-09-19T04:51:25;19.00;31.40
3037;DHT22;1528;52.550;13.408;2023-09-19T04:54:13;18.90;31.20
3037;DHT22;1528;52.550;13.408;2023-09-19T04:57:00;19.00;31.20
3037;DHT22;1528;52.550;13.408;2023-09-19T04:59:45;18.90;31.40
3037;DHT22;1528;52.550;13.408;2023-09-19T05:02:31;18.90;31.40
3037;DHT22;1528;52.550;13.408;2023-09-19T05:05:19;18.90;31.20
3037;DHT22;1528;52.550;13.408;2023-09-19T05:08:06;18.90;31.40
3037;DHT22;1528;52.550;13.408;2023-09-19T05:10:53;18.80;31.50
3037;DHT22;1528;52.550;13.408;2023-09-19T05:13:40;18.80;31.50
3037;DHT22;1528;52.550;13.408;2023-09-19T05:16:28;18.80;31.60
3037;DHT22;1528;52.550;13.408;2023-09-19T05:19:14;18.80;31.50
3037;DHT22;1528;52.550;13.408;2023-09-19T05:21:59;18.80;31.20
3037;DHT22;1528;52.550;13.408;2023-09-19T05:24:46;18.80;31.40
3037;DHT22;1528;52.550;13.408;2023-09-19T05:27:32;18.70;31.30
3037;DHT22;1528;52.550;13.408;2023-09-19T05:30:18;18.70;31.30
3037;DHT22;1528;52.550;13.408;2023-09-19T05:33:04;18.70;31.30
3037;DHT22;1528;52.550;13.408;2023-09-19T05:35:49;18.60;31.50
3037;DHT22;1528;52.550;13.408;2023-09-19T05:38:35;18.60;31.30
3037;DHT22;1528;52.550;13.408;2023-09-19T05:41:22;18.60;31.30
3037;DHT22;1528;52.550;13.408;2023-09-19T05:44:07;18.70;31.30
3037;DHT22;1528;52.550;13.408;2023-09-19T05:46:54;18.60;31.20
3037;DHT22;1528;52.550;13.408;2023-09-19T05:49:41;18.60;30.90
3037;DHT22;1528;52.550;13.408;2023-09-19T05:52:26;18.60;31.20
3037;DHT22;1528;52.550;13.408;2023-09-19T05:55:12;18.70;30.90
3037;DHT22;1528;52.550;13.408;2023-09-19T05:57:59;18.60;31.00
3037;DHT22;1528;52.550;13.408;2023-09-19T06:00:44;18.60;30.90
3037;DHT22;1528;52.550;13.408;2023-09-19T06:03:31;18.60;30.70
3037;DHT22;1528;52.550;13.408;2023-09-19T06:06:17;18.70;30.80
3037;DHT22;1528;52.550;13.408;2023-09-19T06:09:03;18.70;30.70
3037;DHT22;1528;52.550;13.408;2023-09-19T06:11:49;18.60;30.80
3037;DHT22;1528;52.550;13.408;2023-09-19T06:14:36;18.70;30.90
3037;DHT22;1528;52.550;13.408;2023-09-19T06:17:21;18.70;30.40
3037;DHT22;1528;52.550;13.408;2023-09-19T06:20:08;18.70;30.70
3037;DHT22;1528;52.550;13.408;2023-09-19T06:22:57;18.80;30.30
3037;DHT22;1528;52.550;13.408;2023-09-19T06:25:42;18.70;30.30
3037;DHT22;1528;52.550;13.408;2023-09-19T06:28:28;18.70;30.50
3037;DHT22;1528;52.550;13.408;2023-09-19T06:31:15;18.80;30.20
3037;DHT22;1528;52.550;13.408;2023-09-19T06:34:01;18.80;30.10
3037;DHT22;1528;52.550;13.408;2023-09-19T06:36:47;18.80;30.00
3037;DHT22;1528;52.550;13.408;2023-09-19T06:39:33;18.80;30.10
3037;DHT22;1528;52.550;13.408;2023-09-19T06:42:19;18.80;30.10
3037;DHT22;1528;52.550;13.408;2023-09-19T06:45:07;18.90;29.90
3037;DHT22;1528;52.550;13.408;2023-09-19T06:47:56;19.00;29.90
3037;DHT22;1528;52.550;13.408;2023-09-19T06:50:44;19.00;30.20
3037;DHT22;1528;52.550;13.408;2023-09-19T06:53:32;19.00;29.70
3037;DHT22;1528;52.550;13.408;2023-09-19T06:56:19;19.10;29.30
3037;DHT22;1528;52.550;13.408;2023-09-19T06:59:09;19.20;29.20
3037;DHT22;1528;52.550;13.408;2023-09-19T07:01:58;19.20;29.10
3037;DHT22;1528;52.550;13.408;2023-09-19T07:04:45;19.30;28.70
3037;DHT22;1528;52.550;13.408;2023-09-19T07:07:31;19.40;28.60
3037;DHT22;1528;52.550;13.408;2023-09-19T07:10:19;19.50;28.60
3037;DHT22;1528;52.550;13.408;2023-09-19T07:13:08;19.70;28.50
3037;DHT22;1528;52.550;13.408;2023-09-19T07:15:54;19.90;28.10
3037;DHT22;1528;52.550;13.408;2023-09-19T07:18:40;20.00;27.80
3037;DHT22;1528;52.550;13.408;2023-09-19T07:21:29;20.10;27.50
3037;DHT22;1528;52.550;13.408;2023-09-19T07:24:17;20.20;27.00
3037;DHT22;1528;52.550;13.408;2023-09-19T07:27:03;20.30;27.00
3037;DHT22;1528;52.550;13.408;2023-09-19T07:29:49;20.30;27.00
3037;DHT22;1528;52.550;13.408;2023-09-19T07:32:35;20.30;26.80
3037;DHT22;1528;52.550;13.408;2023-09-19T07:35:21;20.30;26.50
3037;DHT22;1528;52.550;13.408;2023-09-19T07:38:08;20.20;26.90
3037;DHT22;1528;52.550;13.408;2023-09-19T07:41:00;20.30;26.40
3037;DHT22;1528;52.550;13.408;2023-09-19T07:43:46;20.30;25.70
3037;DHT22;1528;52.550;13.408;2023-09-19T07:46:32;20.30;25.40
3037;DHT22;1528;52.550;13.408;2023-09-19T07:49:17;20.20;24.90
3037;DHT22;1528;52.550;13.408;2023-09-19T07:52:03;20.20;25.00
3037;DHT22;1528;52.550;13.408;2023-09-19T07:54:50;20.20;25.20
3037;DHT22;1528;52.550;13.408;2023-09-19T07:57:36;20.30;25.30
3037;DHT22;1528;52.550;13.408;2023-09-19T08:00:22;20.50;24.90
3037;DHT22;1528;52.550;13.408;2023-09-19T08:03:07;20.60;24.50
3037;DHT22;1528;52.550;13.408;2023-09-19T08:05:53;20.60;23.90
3037;DHT22;1528;52.550;13.408;2023-09-19T08:08:39;20.60;23.60
3037;DHT22;1528;52.550;13.408;2023-09-19T08:11:26;20.60;23.30
3037;DHT22;1528;52.550;13.408;2023-09-19T08:14:15;20.60;22.90
3037;DHT22;1528;52.550;13.408;2023-09-19T08:17:00;20.60;22.40
3037;DHT22;1528;52.550;13.408;2023-09-19T08:19:46;20.70;22.70
3037;DHT22;1528;52.550;13.408;2023-09-19T08:22:33;20.60;22.10
3037;DHT22;1528;52.550;13.408;2023-09-19T08:25:19;20.60;22.40
3037;DHT22;1528;52.550;13.408;2023-09-19T08:28:06;20.60;22.70
3037;DHT22;1528;52.550;13.408;2023-09-19T08:30:56;20.80;22.70
3037;DHT22;1528;52.550;13.408;2023-09-19T08:33:46;20.90;22.40
3037;DHT22;1528;52.550;13.408;2023-09-19T08:36:33;21.00;22.40
3037;DHT22;1528;52.550;13.408;2023-09-19T08:39:19;21.00;22.50
3037;DHT22;1528;52.550;13.408;2023-09-19T08:42:05;20.90;22.20
3037;DHT22;1528;52.550;13.408;2023-09-19T08:44:53;20.90;22.30
3037;DHT22;1528;52.550;13.408;2023-09-19T08:47:46;20.80;22.20
3037;DHT22;1528;52.550;13.408;2023-09-19T08:50:34;20.70;22.30
3037;DHT22;1528;52.550;13.408;2023-09-19T08:53:29;20.70;22.50
3037;DHT22;1528;52.550;13.408;2023-09-19T08:56:18;20.70;22.00
3037;DHT22;1528;52.550;13.408;2023-09-19T08:59:07;20.80;22.20
3037;DHT22;1528;52.550;13.408;2023-09-19T09:01:55;21.00;22.10
3037;DHT22;1528;52.550;13.408;2023-09-19T09:04:41;21.10;21.70
3037;DHT22;1528;52.550;13.408;2023-09-19T09:07:28;21.10;21.00
3037;DHT22;1528;52.550;13.408;2023-09-19T09:10:14;21.00;21.70
3037;DHT22;1528;52.550;13.408;2023-09-19T09:12:59;20.90;21.20
3037;DHT22;1528;52.550;13.408;2023-09-19T09:15:45;20.90;21.20
3037;DHT22;1528;52.550;13.408;2023-09-19T09:18:32;20.90;20.70
3037;DHT22;1528;52.550;13.408;2023-09-19T09:21:18;20.90;20.80
3037;DHT22;1528;52.550;13.408;2023-09-19T09:24:26;20.90;20.60
3037;DHT22;1528;52.550;13.408;2023-09-19T09:27:13;21.00;20.50
3037;DHT22;1528;52.550;13.408;2023-09-19T09:29:59;20.90;20.50
3037;DHT22;1528;52.550;13.408;2023-09-19T09:32:45;21.10;20.70
3037;DHT22;1528;52.550;13.408;2023-09-19T09:35:33;21.10;19.60
3037;DHT22;1528;52.550;13.408;2023-09-19T09:38:20;21.40;19.20
3037;DHT22;1528;52.550;13.408;2023-09-19T09:41:10;21.40;19.00
3037;DHT22;1528;52.550;13.408;2023-09-19T09:44:12;21.20;19.50
3037;DHT22;1528;52.550;13.408;2023-09-19T09:46:59;21.20;19.50
3037;DHT22;1528;52.550;13.408;2023-09-19T09:50:04;21.20;19.20
3037;DHT22;1528;52.550;13.408;2023-09-19T09:53:02;21.30;19.30
3037;DHT22;1528;52.550;13.408;2023-09-19T09:56:01;21.30;19.20
3037;DHT22;1528;52.550;13.408;2023-09-19T09:58:51;21.30;18.20
3037;DHT22;1528;52.550;13.408;2023-09-19T10:01:46;21.20;17.80
3037;DHT22;1528;52.550;13.408;2023-09-19T10:04:32;21.10;18.40
3037;DHT22;1528;52.550;13.408;2023-09-19T10:07:27;21.00;17.80
3037;DHT22;1528;52.550;13.408;2023-09-19T10:10:29;20.90;17.00
3037;DHT22;1528;52.550;13.408;2023-09-19T10:13:25;20.70;17.10
3037;DHT22;1528;52.550;13.408;2023-09-19T10:16:16;20.70;17.30
3037;DHT22;1528;52.550;13.408;2023-09-19T10:19:06;21.00;17.30
3037;DHT22;1528;52.550;13.408;2023-09-19T10:21:54;21.20;17.40
3037;DHT22;1528;52.550;13.408;2023-09-19T10:24:40;21.40;16.50
3037;DHT22;1528;52.550;13.408;2023-09-19T10:27:29;21.40;15.40
3037;DHT22;1528;52.550;13.408;2023-09-19T10:30:23;21.60;16.10
3037;DHT22;1528;52.550;13.408;2023-09-19T10:33:09;21.60;16.40
3037;DHT22;1528;52.550;13.408;2023-09-19T10:35:58;21.70;15.00
3037;DHT22;1528;52.550;13.408;2023-09-19T10:38:45;21.80;14.60
3037;DHT22;1528;52.550;13.408;2023-09-19T10:41:34;22.00;13.70
3037;DHT22;1528;52.550;13.408;2023-09-19T10:44:24;22.10;13.00
3037;DHT22;1528;52.550;13.408;2023-09-19T10:47:10;22.20;13.20
3037;DHT22;1528;52.550;13.408;2023-09-19T10:49:57;22.40;14.30
3037;DHT22;1528;52.550;13.408;2023-09-19T10:52:43;22.50;12.80
3037;DHT22;1528;52.550;13.408;2023-09-19T10:55:32;22.30;13.10
3037;DHT22;1528;52.550;13.408;2023-09-19T10:58:29;22.00;13.00
3037;DHT22;1528;52.550;13.408;2023-09-19T11:01:20;21.80;13.00
3037;DHT22;1528;52.550;13.408;2023-09-19T11:04:21;21.70;12.70
3037;DHT22;1528;52.550;13.408;2023-09-19T11:07:08;21.70;12.30
3037;DHT22;1528;52.550;13.408;2023-09-19T11:09:56;21.80;12.60
3037;DHT22;1528;52.550;13.408;2023-09-19T11:12:48;21.90;12.40
3037;DHT22;1528;52.550;13.408;2023-09-19T11:16:07;22.00;12.00
3037;DHT22;1528;52.550;13.408;2023-09-19T11:18:55;22.00;12.40
3037;DHT22;1528;52.550;13.408;2023-09-19T11:21:52;22.10;11.70
3037;DHT22;1528;52.550;13.408;2023-09-19T11:24:40;22.00;11.70
3037;DHT22;1528;52.550;13.408;2023-09-19T11:27:26;21.90;11.90
3037;DHT22;1528;52.550;13.408;2023-09-19T11:30:28;21.90;11.60
3037;DHT22;1528;52.550;13.408;2023-09-19T11:33:18;21.80;11.90
3037;DHT22;1528;52.550;13.408;2023-09-19T11:36:10;21.90;11.80
3037;DHT22;1528;52.550;13.408;2023-09-19T11:39:00;22.10;11.60
3037;DHT22;1528;52.550;13.408;2023-09-19T11:41:58;22.10;11.50
3037;DHT22;1528;52.550;13.408;2023-09-19T11:44:46;22.20;12.30
3037;DHT22;1528;52.550;13.408;2023-09-19T11:47:33;22.20;11.70
3037;DHT22;1528;52.550;13.408;2023-09-19T11:50:20;22.10;11.30
3037;DHT22;1528;52.550;13.408;2023-09-19T11:53:07;22.10;10.90
3037;DHT22;1528;52.550;13.408;2023-09-19T11:55:54;22.00;11.20
3037;DHT22;1528;52.550;13.408;2023-09-19T11:58:41;22.00;10.80
3037;DHT22;1528;52.550;13.408;2023-09-19T12:01:31;22.10;11.30
3037;DHT22;1528;52.550;13.408;2023-09-19T12:04:18;22.10;11.00
3037;DHT22;1528;52.550;13.408;2023-09-19T12:07:09;22.00;11.60
3037;DHT22;1528;52.550;13.408;2023-09-19T12:10:05;21.90;11.30
3037;DHT22;1528;52.550;13.408;2023-09-19T12:12:55;21.90;11.60
3037;DHT22;1528;52.550;13.408;2023-09-19T12:15:43;22.00;11.60
3037;DHT22;1528;52.550;13.408;2023-09-19T12:18:32;22.00;11.70
3037;DHT22;1528;52.550;13.408;2023-09-19T12:21:27;22.10;11.00
3037;DHT22;1528;52.550;13.408;2023-09-19T12:24:15;22.10;10.70
3037;DHT22;1528;52.550;13.408;2023-09-19T12:27:05;22.10;10.50
3037;DHT22;1528;52.550;13.408;2023-09-19T12:29:53;22.00;10.00
3037;DHT22;1528;52.550;13.408;2023-09-19T12:32:39;21.90;9.80
3037;DHT22;1528;52.550;13.408;2023-09-19T12:35:30;21.90;10.20
3037;DHT22;1528;52.550;13.408;2023-09-19T12:38:26;21.90;10.20
3037;DHT22;1528;52.550;13.408;2023-09-19T12:41:12;21.90;10.50
3037;DHT22;1528;52.550;13.408;2023-09-19T12:44:01;22.00;9.80
3037;DHT22;1528;52.550;13.408;2023-09-19T12:46:51;22.00;9.60
3037;DHT22;1528;52.550;13.408;2023-09-19T12:50:06;22.00;9.70
3037;DHT22;1528;52.550;13.408;2023-09-19T12:52:57;22.10;9.20
3037;DHT22;1528;52.550;13.408;2023-09-19T12:55:44;22.10;9.70
3037;DHT22;1528;52.550;13.408;2023-09-19T12:58:31;22.10;9.70
3037;DHT22;1528;52.550;13.408;2023-09-19T13:01:20;22.20;10.20
3037;DHT22;1528;52.550;13.408;2023-09-19T13:04:17;22.20;10.30
3037;DHT22;1528;52.550;13.408;2023-09-19T13:07:39;22.30;10.00
3037;DHT22;1528;52.550;13.408;2023-09-19T13:10:27;22.10;9.80
3037;DHT22;1528;52.550;13.408;2023-09-19T13:13:23;22.10;10.30
3037;DHT22;1528;52.550;13.408;2023-09-19T13:16:12;22.10;10.50
3037;DHT22;1528;52.550;13.408;2023-09-19T13:19:05;22.10;10.00
3037;DHT22;1528;52.550;13.408;2023-09-19T13:21:50;22.10;10.10
3037;DHT22;1528;52.550;13.408;2023-09-19T13:24:38;22.10;10.50
3037;DHT22;1528;52.550;13.408;2023-09-19T13:27:24;22.20;10.80
3037;DHT22;1528;52.550;13.408;2023-09-19T13:30:12;22.00;9.00
3037;DHT22;1528;52.550;13.408;2023-09-19T13:33:05;21.90;9.50
3037;DHT22;1528;52.550;13.408;2023-09-19T13:35:53;22.00;9.70
3037;DHT22;1528;52.550;13.408;2023-09-19T13:38:39;22.00;9.90
3037;DHT22;1528;52.550;13.408;2023-09-19T13:41:27;22.00;10.20
3037;DHT22;1528;52.550;13.408;2023-09-19T13:44:12;22.10;10.10
3037;DHT22;1528;52.550;13.408;2023-09-19T13:46:58;22.10;9.90
3037;DHT22;1528;52.550;13.408;2023-09-19T13:49:46;22.10;10.20
3037;DHT22;1528;52.550;13.408;2023-09-19T13:52:36;21.90;10.20
3037;DHT22;1528;52.550;13.408;2023-09-19T13:55:22;21.90;10.90
3037;DHT22;1528;52.550;13.408;2023-09-19T13:58:09;22.00;10.70
3037;DHT22;1528;52.550;13.408;2023-09-19T14:00:56;22.00;10.50
3037;DHT22;1528;52.550;13.408;2023-09-19T14:03:44;22.00;10.60
3037;DHT22;1528;52.550;13.408;2023-09-19T14:06:31;22.00;10.10
3037;DHT22;1528;52.550;13.408;2023-09-19T14:09:18;22.00;10.30
3037;DHT22;1528;52.550;13.408;2023-09-19T14:12:05;22.00;10.80
3037;DHT22;1528;52.550;13.408;2023-09-19T14:14:51;22.00;10.00
3037;DHT22;1528;52.550;13.408;2023-09-19T14:17:37;22.00;10.80
3037;DHT22;1528;52.550;13.408;2023-09-19T14:20:23;22.10;10.30
3037;DHT22;1528;52.550;13.408;2023-09-19T14:23:08;22.10;10.10
3037;DHT22;1528;52.550;13.408;2023-09-19T14:25:55;22.10;10.20
3037;DHT22;1528;52.550;13.408;2023-09-19T14:28:41;22.00;10.40
3037;DHT22;1528;52.550;13.408;2023-09-19T14:31:27;22.00;10.50
3037;DHT22;1528;52.550;13.408;2023-09-19T14:34:12;22.00;10.60
3037;DHT22;1528;52.550;13.408;2023-09-19T14:36:59;22.00;10.90
3037;DHT22;1528;52.550;13.408;2023-09-19T14:39:44;22.00;10.50
3037;DHT22;1528;52.550;13.408;2023-09-19T14:42:31;22.00;10.60
3037;DHT22;1528;52.550;13.408;2023-09-19T14:45:17;22.00;10.50
3037;DHT22;1528;52.550;13.408;2023-09-19T14:48:03;22.00;10.60
3037;DHT22;1528;52.550;13.408;2023-09-19T14:50:49;22.00;10.70
3037;DHT22;1528;52.550;13.408;2023-09-19T14:53:36;21.90;10.80
3037;DHT22;1528;52.550;13.408;2023-09-19T14:56:22;21.90;10.60
3037;DHT22;1528;52.550;13.408;2023-09-19T14:59:11;21.80;11.40
3037;DHT22;1528;52.550;13.408;2023-09-19T15:01:57;21.90;11.30
3037;DHT22;1528;52.550;13.408;2023-09-19T15:04:43;21.90;11.50
3037;DHT22;1528;52.550;13.408;2023-09-19T15:07:29;21.90;11.20
3037;DHT22;1528;52.550;13.408;2023-09-19T15:10:15;21.90;10.70
3037;DHT22;1528;52.550;13.408;2023-09-19T15:13:00;21.90;10.90
3037;DHT22;1528;52.550;13.408;2023-09-19T15:15:47;21.90;11.00
3037;DHT22;1528;52.550;13.408;2023-09-19T15:18:33;21.90;10.50
3037;DHT22;1528;52.550;13.408;2023-09-19T15:21:18;21.80;10.50
3037;DHT22;1528;52.550;13.408;2023-09-19T15:24:05;21.80;10.60
3037;DHT22;1528;52.550;13.408;2023-09-19T15:26:53;21.70;10.60
3037;DHT22;1528;52.550;13.408;2023-09-19T15:29:39;21.70;10.60
3037;DHT22;1528;52.550;13.408;2023-09-19T15:32:27;21.70;10.70
3037;DHT22;1528;52.550;13.408;2023-09-19T15:35:13;21.70;10.70
3037;DHT22;1528;52.550;13.408;2023-09-19T15:38:01;21.60;10.60
3037;DHT22;1528;52.550;13.408;2023-09-19T15:40:47;21.60;10.70
3037;DHT22;1528;52.550;13.408;2023-09-19T15:43:32;21.60;11.00
3037;DHT22;1528;52.550;13.408;2023-09-19T15:46:19;21.60;10.80
3037;DHT22;1528;52.550;13.408;2023-09-19T15:49:06;21.60;11.10
3037;DHT22;1528;52.550;13.408;2023-09-19T15:51:52;21.60;11.30
3037;DHT22;1528;52.550;13.408;2023-09-19T15:54:38;21.60;11.50
3037;DHT22;1528;52.550;13.408;2023-09-19T15:57:27;21.60;11.40
3037;DHT22;1528;52.550;13.408;2023-09-19T16:00:15;21.60;11.40
3037;DHT22;1528;52.550;13.408;2023-09-19T16:03:01;21.70;11.20
3037;DHT22;1528;52.550;13.408;2023-09-19T16:05:48;21.60;11.10
3037;DHT22;1528;52.550;13.408;2023-09-19T16:08:33;21.60;11.10
3037;DHT22;1528;52.550;13.408;2023-09-19T16:11:19;21.60;11.00
3037;DHT22;1528;52.550;13.408;2023-09-19T16:14:05;21.50;11.00
3037;DHT22;1528;52.550;13.408;2023-09-19T16:16:51;21.60;11.10
3037;DHT22;1528;52.550;13.408;2023-09-19T16:19:37;21.50;11.00
3037;DHT22;1528;52.550;13.408;2023-09-19T16:22:24;21.40;10.90
3037;DHT22;1528;52.550;13.408;2023-09-19T16:25:10;21.40;10.90
3037;DHT22;1528;52.550;13.408;2023-09-19T16:27:56;21.30;11.10
3037;DHT22;1528;52.550;13.408;2023-09-19T16:30:42;21.20;11.40
3037;DHT22;1528;52.550;13.408;2023-09-19T16:33:28;21.20;11.40
3037;DHT22;1528;52.550;13.408;2023-09-19T16:36:16;21.20;11.60
3037;DHT22;1528;52.550;13.408;2023-09-19T16:39:03;21.20;11.80
3037;DHT22;1528;52.550;13.408;2023-09-19T16:41:49;21.20;11.80
3037;DHT22;1528;52.550;13.408;2023-09-19T16:44:35;21.20;11.80
3037;DHT22;1528;52.550;13.408;2023-09-19T16:47:21;21.10;11.80
3037;DHT22;1528;52.550;13.408;2023-09-19T16:50:07;21.10;11.80
3037;DHT22;1528;52.550;13.408;2023-09-19T16:52:54;21.10;12.00
3037;DHT22;1528;52.550;13.408;2023-09-19T16:55:41;21.00;12.60
3037;DHT22;1528;52.550;13.408;2023-09-19T16:58:27;21.00;12.10
3037;DHT22;1528;52.550;13.408;2023-09-19T17:01:14;20.90;12.20
3037;DHT22;1528;52.550;13.408;2023-09-19T17:04:00;20.90;12.40
3037;DHT22;1528;52.550;13.408;2023-09-19T17:06:46;20.90;12.30
3037;DHT22;1528;52.550;13.408;2023-09-19T17:09:32;20.80;12.40
3037;DHT22;1528;52.550;13.408;2023-09-19T17:12:19;20.80;12.30
3037;DHT22;1528;52.550;13.408;2023-09-19T17:15:06;20.80;12.40
3037;DHT22;1528;52.550;13.408;2023-09-19T17:17:52;20.80;12.50
3037;DHT22;1528;52.550;13.408;2023-09-19T17:20:41;20.80;12.60
3037;DHT22;1528;52.550;13.408;2023-09-19T17:23:27;20.70;12.80
3037;DHT22;1528;52.550;13.408;2023-09-19T17:26:13;20.70;12.80
3037;DHT22;1528;52.550;13.408;2023-09-19T17:29:02;20.70;12.70
3037;DHT22;1528;52.550;13.408;2023-09-19T17:31:47;20.70;12.80
3037;DHT22;1528;52.550;13.408;2023-09-19T17:34:33;20.70;12.70
3037;DHT22;1528;52.550;13.408;2023-09-19T17:37:20;20.60;12.70
3037;DHT22;1528;52.550;13.408;2023-09-19T17:40:07;20.60;12.80
3037;DHT22;1528;52.550;13.408;2023-09-19T17:42:54;20.60;12.90
3037;DHT22;1528;52.550;13.408;2023-09-19T17:45:43;20.60;12.80
3037;DHT22;1528;52.550;13.408;2023-09-19T17:48:30;20.50;12.70
3037;DHT22;1528;52.550;13.408;2023-09-19T17:51:16;20.50;12.90
3037;DHT22;1528;52.550;13.408;2023-09-19T17:54:02;20.50;13.10
3037;DHT22;1528;52.550;13.408;2023-09-19T17:56:48;20.50;12.80
3037;DHT22;1528;52.550;13.408;2023-09-19T17:59:34;20.50;13.10
3037;DHT22;1528;52.550;13.408;2023-09-19T18:02:21;20.60;13.10